Time;durP1;ratioP1;P1;durP2;ratioP2;P2;SDS_P1;SDS_P2;PMS_P1;PMS_P2;Temp;Humidity;BMP_temperature;BMP_pressure;BME280_temperature;BME280_humidity;BME280_pressure;Samples;Min_cycle;Max_cycle;Signal;HPM_P1;HPM_P2
2021/01/19 00:02:23;;;;;;;28.52;16.25;;;2.40;99.90;;;;;;5014166;28;20076;-72
2021/01/19 00:04:49;;;;;;;18.17;13.52;;;2.40;99.90;;;;;;5013792;28;20548;-73
2021/01/19 00:07:15;;;;;;;25.27;14.68;;;2.40;99.90;;;;;;5014516;28;20049;-72
2021/01/19 00:09:41;;;;;;;23.23;13.57;;;2.50;99.90;;;;;;5014046;28;20501;-72
2021/01/19 00:12:07;;;;;;;19.00;14.18;;;2.50;99.90;;;;;;5004095;28;20033;-72
2021/01/19 00:14:33;;;;;;;21.63;15.40;;;2.40;99.90;;;;;;5015055;28;20017;-72
2021/01/19 00:16:59;;;;;;;23.17;13.82;;;2.40;99.90;;;;;;5012301;28;20022;-72
2021/01/19 00:19:25;;;;;;;23.48;16.77;;;2.20;99.90;;;;;;5014162;28;20037;-73
2021/01/19 00:21:51;;;;;;;20.50;14.18;;;2.20;99.90;;;;;;5014101;28;20026;-75
2021/01/19 00:24:16;;;;;;;23.70;15.35;;;2.10;99.90;;;;;;5013213;28;20112;-72
2021/01/19 00:26:42;;;;;;;19.40;15.10;;;2.10;99.90;;;;;;5011401;28;20045;-72
2021/01/19 00:29:08;;;;;;;19.23;14.52;;;2.10;99.90;;;;;;5012027;28;20064;-73
2021/01/19 00:31:34;;;;;;;24.73;14.63;;;2.10;99.90;;;;;;5019139;28;20048;-72
2021/01/19 00:34:01;;;;;;;20.30;14.48;;;2.10;99.90;;;;;;5022648;28;20046;-72
2021/01/19 00:36:27;;;;;;;20.90;16.15;;;2.10;99.90;;;;;;5005767;28;20097;-72
2021/01/19 00:38:53;;;;;;;27.15;14.43;;;2.10;99.90;;;;;;5007973;28;20034;-72
2021/01/19 00:41:19;;;;;;;18.58;14.35;;;2.10;99.90;;;;;;5008447;28;20080;-72
2021/01/19 00:43:44;;;;;;;26.02;14.73;;;2.00;99.90;;;;;;5013687;28;20057;-72
2021/01/19 00:46:10;;;;;;;19.83;15.18;;;2.00;99.90;;;;;;5013377;28;20084;-72
2021/01/19 00:48:36;;;;;;;24.95;16.02;;;2.10;99.90;;;;;;5014589;28;20666;-73
2021/01/19 00:51:02;;;;;;;24.30;15.80;;;2.00;99.90;;;;;;5009424;28;20513;-72
2021/01/19 00:53:28;;;;;;;21.77;14.45;;;2.00;99.90;;;;;;5008777;28;20022;-73
2021/01/19 00:55:54;;;;;;;21.60;14.75;;;2.00;99.90;;;;;;5009971;28;20103;-72
2021/01/19 00:58:35;;;;;;;21.88;13.52;;;1.90;99.90;;;;;;5013236;28;20026;-72
2021/01/19 01:01:01;;;;;;;21.85;15.02;;;1.90;99.90;;;;;;5011602;28;20037;-72
2021/01/19 01:03:29;;;;;;;20.58;13.70;;;1.90;99.90;;;;;;5013851;28;20030;-72
2021/01/19 01:05:56;;;;;;;18.70;15.35;;;1.90;99.90;;;;;;5005718;28;20033;-72
2021/01/19 01:08:23;;;;;;;16.27;13.55;;;1.90;99.90;;;;;;5012217;28;20053;-72
2021/01/19 01:11:08;;;;;;;;;;;;;;;;;;;;;
2021/01/19 01:13:35;;;;;;;21.23;15.55;;;1.90;99.90;;;;;;5006630;28;20029;-72
2021/01/19 01:16:27;;;;;;;18.98;13.60;;;1.90;99.90;;;;;;5011815;28;20455;-72
2021/01/19 01:22:15;;;;;;;23.80;16.13;;;1.90;99.90;;;;;;5001446;28;20026;-72
2021/01/19 01:25:02;;;;;;;19.77;13.25;;;1.90;99.90;;;;;;5014145;28;20030;-73
2021/01/19 01:27:39;;;;;;;17.48;12.60;;;1.90;99.90;;;;;;5013257;28;20034;-72
2021/01/19 01:30:10;;;;;;;17.92;13.68;;;1.80;99.90;;;;;;5010561;28;20025;-72
2021/01/19 01:32:56;;;;;;;20.00;12.88;;;1.80;99.90;;;;;;5016281;28;20026;-72
2021/01/19 01:35:24;;;;;;;17.65;14.07;;;1.70;99.90;;;;;;5016994;28;20094;-72
2021/01/19 01:37:55;;;;;;;19.17;12.13;;;1.80;99.90;;;;;;5016163;28;20038;-72
2021/01/19 01:40:26;;;;;;;20.05;14.02;;;1.80;99.90;;;;;;5012611;28;20474;-72
2021/01/19 01:43:15;;;;;;;23.92;11.95;;;1.80;99.90;;;;;;5015849;28;20030;-73
2021/01/19 01:45:52;;;;;;;16.35;11.80;;;1.90;99.90;;;;;;5011397;28;20149;-72
2021/01/19 01:48:24;;;;;;;22.90;13.07;;;1.90;99.90;;;;;;5015830;28;20037;-72
2021/01/19 01:50:55;;;;;;;18.40;12.05;;;1.90;99.90;;;;;;5016216;28;20018;-72
2021/01/19 01:53:37;;;;;;;21.43;15.03;;;1.80;99.90;;;;;;5015975;28;20022;-72
2021/01/19 01:56:12;;;;;;;19.05;13.50;;;1.80;99.90;;;;;;5016471;28;20470;-72
2021/01/19 01:58:59;;;;;;;18.73;13.32;;;1.80;99.90;;;;;;5012052;28;20040;-73
2021/01/19 02:01:31;;;;;;;20.95;14.18;;;1.70;99.90;;;;;;5020635;28;20025;-72
2021/01/19 02:03:57;;;;;;;;;;;1.70;99.90;;;;;;5018787;28;20046;-72
2021/01/19 02:06:27;;;;;;;17.42;13.00;;;1.70;99.90;;;;;;5018479;28;19985;-70
2021/01/19 02:09:25;;;;;;;21.00;13.57;;;1.70;99.90;;;;;;5009056;28;20018;-70
2021/01/19 02:12:14;;;;;;;20.77;14.40;;;1.70;99.90;;;;;;5008622;28;20038;-72
2021/01/19 02:14:49;;;;;;;19.38;13.05;;;1.60;99.90;;;;;;5018946;28;20072;-73
2021/01/19 02:17:34;;;;;;;19.40;13.70;;;1.60;99.90;;;;;;5010537;28;20053;-74
2021/01/19 02:20:40;;;;;;;19.45;13.63;;;1.60;99.90;;;;;;5014116;28;20023;-73
2021/01/19 02:23:12;;;;;;;18.75;13.73;;;1.70;99.90;;;;;;5014651;28;20021;-73
2021/01/19 02:26:10;;;;;;;16.75;13.07;;;1.60;99.90;;;;;;5014466;28;20061;-73
2021/01/19 02:29:40;;;;;;;17.77;13.32;;;1.60;99.90;;;;;;5011408;28;20113;-71
2021/01/19 02:32:39;;;;;;;17.08;12.77;;;1.70;99.90;;;;;;4915720;29;20043;-72
2021/01/19 02:35:24;;;;;;;18.27;10.88;;;1.80;99.90;;;;;;4956537;28;20072;-73
2021/01/19 02:38:15;;;;;;;15.25;10.77;;;1.70;99.90;;;;;;5014521;28;20041;-71
2021/01/19 02:40:42;;;;;;;18.63;12.57;;;1.70;99.90;;;;;;4998363;28;20088;-71
2021/01/19 02:43:20;;;;;;;19.30;13.23;;;1.70;99.90;;;;;;5011032;28;20029;-73
2021/01/19 02:45:47;;;;;;;18.52;12.55;;;1.60;99.90;;;;;;5012548;28;20073;-71
2021/01/19 02:48:13;;;;;;;16.17;12.18;;;1.60;99.90;;;;;;5015408;28;20022;-71
2021/01/19 02:50:39;;;;;;;14.98;12.20;;;1.60;99.90;;;;;;5015349;28;20033;-74
2021/01/19 02:53:06;;;;;;;14.43;11.77;;;1.50;99.90;;;;;;5013874;28;20055;-74
2021/01/19 02:55:32;;;;;;;19.25;13.05;;;1.50;99.90;;;;;;5013499;28;20034;-72
2021/01/19 02:58:03;;;;;;;21.52;13.63;;;1.40;99.90;;;;;;5013903;28;20022;-73
2021/01/19 03:00:54;;;;;;;19.85;13.98;;;1.50;99.90;;;;;;5009305;28;20026;-74
2021/01/19 03:03:22;;;;;;;19.55;13.60;;;1.50;99.90;;;;;;4999505;28;20038;-73
2021/01/19 03:05:48;;;;;;;17.33;13.68;;;1.50;99.90;;;;;;5014718;28;20036;-73
2021/01/19 03:08:14;;;;;;;29.73;12.35;;;1.50;99.90;;;;;;5015271;28;20045;-73
2021/01/19 03:10:43;;;;;;;25.88;14.60;;;1.50;99.90;;;;;;5013606;28;20033;-73
2021/01/19 03:13:13;;;;;;;18.17;13.15;;;1.50;99.90;;;;;;5009902;28;20104;-73
2021/01/19 03:15:40;;;;;;;18.00;13.15;;;1.50;99.90;;;;;;5013512;28;20026;-74
2021/01/19 03:18:07;;;;;;;20.35;14.25;;;1.60;99.90;;;;;;5015384;28;20053;-73
2021/01/19 03:20:33;;;;;;;16.85;13.25;;;1.60;99.90;;;;;;5014730;28;20026;-73
2021/01/19 03:23:00;;;;;;;19.48;13.38;;;1.60;99.90;;;;;;5013500;28;20113;-73
2021/01/19 03:25:26;;;;;;;20.25;14.32;;;1.50;99.90;;;;;;5015551;28;20033;-75
2021/01/19 03:27:52;;;;;;;17.10;13.43;;;1.60;99.90;;;;;;5013145;28;20068;-74
2021/01/19 03:30:18;;;;;;;18.95;13.52;;;1.70;99.90;;;;;;5011857;28;20421;-74
2021/01/19 03:32:44;;;;;;;19.25;13.27;;;1.70;99.90;;;;;;5014910;28;20033;-73
2021/01/19 03:35:10;;;;;;;20.98;12.63;;;1.80;99.90;;;;;;5013683;28;20026;-74
2021/01/19 03:37:36;;;;;;;22.80;13.93;;;1.80;99.90;;;;;;5014489;28;20078;-76
2021/01/19 03:40:06;;;;;;;17.10;12.65;;;1.80;99.90;;;;;;5015556;28;20027;-74
2021/01/19 03:42:32;;;;;;;19.50;13.55;;;1.90;99.90;;;;;;5008739;28;20029;-73
2021/01/19 03:44:58;;;;;;;19.50;12.55;;;2.00;99.90;;;;;;5012815;28;20022;-73
2021/01/19 03:47:24;;;;;;;18.73;12.00;;;2.00;99.90;;;;;;5014678;28;20104;-74
2021/01/19 03:49:50;;;;;;;16.05;13.45;;;1.90;99.90;;;;;;5011081;28;20030;-73
2021/01/19 03:52:15;;;;;;;19.48;14.20;;;1.90;99.90;;;;;;5013951;28;20048;-73
2021/01/19 03:54:41;;;;;;;17.55;13.38;;;2.10;99.90;;;;;;5013015;28;20026;-73
2021/01/19 03:57:07;;;;;;;17.85;13.68;;;2.00;99.90;;;;;;5012706;28;20451;-73
2021/01/19 03:59:36;;;;;;;16.63;12.85;;;2.00;99.90;;;;;;5014381;28;20018;-73
2021/01/19 04:02:02;;;;;;;12.73;10.88;;;2.10;99.90;;;;;;5009361;28;20092;-73
2021/01/19 04:04:28;;;;;;;19.75;11.05;;;2.20;99.90;;;;;;5013227;28;20192;-73
2021/01/19 04:06:54;;;;;;;16.00;12.20;;;2.30;99.90;;;;;;5015631;28;20026;-73
2021/01/19 04:09:20;;;;;;;16.90;13.25;;;2.30;99.90;;;;;;5014393;28;20033;-73
2021/01/19 04:11:45;;;;;;;19.95;12.40;;;2.30;99.90;;;;;;5008203;28;20053;-73
2021/01/19 04:14:11;;;;;;;17.83;12.07;;;2.30;99.90;;;;;;5014440;28;20022;-73
2021/01/19 04:16:37;;;;;;;19.52;13.18;;;2.40;99.90;;;;;;5013144;28;20033;-73
2021/01/19 04:19:03;;;;;;;16.40;11.88;;;2.40;99.90;;;;;;5013615;28;20033;-73
2021/01/19 04:21:31;;;;;;;16.27;12.02;;;2.40;99.90;;;;;;5014989;28;20980;-73
2021/01/19 04:23:56;;;;;;;21.75;12.55;;;2.50;99.90;;;;;;5021958;28;20437;-74
2021/01/19 04:26:22;;;;;;;16.52;12.68;;;2.50;99.90;;;;;;5020487;28;20026;-73
2021/01/19 04:28:48;;;;;;;19.95;13.05;;;2.60;99.90;;;;;;5009290;28;20026;-73
2021/01/19 04:31:14;;;;;;;17.40;11.48;;;2.50;99.90;;;;;;5012599;28;20048;-73
2021/01/19 04:33:40;;;;;;;19.50;12.38;;;2.50;99.90;;;;;;5013689;28;20030;-73
2021/01/19 04:36:06;;;;;;;18.90;12.50;;;2.50;99.90;;;;;;5011841;28;20511;-74
2021/01/19 04:38:33;;;;;;;17.50;12.85;;;2.60;99.90;;;;;;5006464;28;20091;-73
2021/01/19 04:40:58;;;;;;;20.27;14.02;;;2.60;99.90;;;;;;5002769;28;20526;-75
2021/01/19 04:43:26;;;;;;;16.88;12.45;;;2.60;99.90;;;;;;5013467;28;20026;-73
2021/01/19 04:45:52;;;;;;;20.42;13.57;;;2.60;99.90;;;;;;5011350;28;20037;-73
2021/01/19 04:48:19;;;;;;;20.25;14.38;;;2.60;99.90;;;;;;5014621;28;20541;-73
2021/01/19 04:50:46;;;;;;;25.23;15.32;;;2.70;99.90;;;;;;5015473;28;20029;-73
2021/01/19 04:53:15;;;;;;;20.00;14.82;;;2.80;99.90;;;;;;5014146;28;20022;-74
2021/01/19 04:55:52;;;;;;;18.88;14.15;;;3.00;99.90;;;;;;5012054;28;20690;-73
2021/01/19 04:58:22;;;;;;;17.42;14.32;;;3.10;99.90;;;;;;5004793;28;20046;-73
2021/01/19 05:01:11;;;;;;;27.30;13.15;;;3.20;99.90;;;;;;5001668;28;20022;-73
2021/01/19 05:03:42;;;;;;;18.58;14.65;;;3.30;99.90;;;;;;5011227;28;20041;-73
2021/01/19 05:06:27;;;;;;;19.88;14.73;;;3.50;99.90;;;;;;5003004;28;20030;-73
2021/01/19 05:08:57;;;;;;;21.42;15.13;;;3.50;99.90;;;;;;5009537;28;20029;-73
2021/01/19 05:11:36;;;;;;;23.10;14.77;;;3.50;99.90;;;;;;5014486;28;20026;-73
2021/01/19 05:14:03;;;;;;;15.25;13.35;;;3.50;99.90;;;;;;5026925;28;20026;-74
2021/01/19 05:16:32;;;;;;;16.95;14.10;;;3.50;99.90;;;;;;5012707;28;20111;-73
2021/01/19 05:19:00;;;;;;;19.38;13.38;;;3.40;99.90;;;;;;5012472;28;20037;-73
2021/01/19 05:21:26;;;;;;;19.83;14.02;;;3.50;99.90;;;;;;5008835;28;20110;-74
2021/01/19 05:23:54;;;;;;;18.38;14.35;;;3.50;99.90;;;;;;5015396;28;20034;-73
2021/01/19 05:26:20;;;;;;;19.30;12.63;;;3.60;99.90;;;;;;5017929;28;20029;-73
2021/01/19 05:28:49;;;;;;;16.98;14.00;;;3.60;99.90;;;;;;5017167;28;20022;-73
2021/01/19 05:31:15;;;;;;;23.05;14.00;;;3.60;99.90;;;;;;5015913;28;20497;-73
2021/01/19 05:34:01;;;;;;;17.83;13.75;;;3.60;99.90;;;;;;5014560;28;20030;-73
2021/01/19 05:36:34;;;;;;;16.13;12.63;;;3.60;99.90;;;;;;5014607;28;20029;-73
2021/01/19 05:39:00;;;;;;;19.80;14.27;;;3.60;99.90;;;;;;5016038;28;20029;-73
2021/01/19 05:41:36;;;;;;;20.50;13.48;;;3.60;99.90;;;;;;5018828;28;20068;-73
2021/01/19 05:44:31;;;;;;;18.50;13.88;;;3.60;99.90;;;;;;5017462;28;20022;-73
2021/01/19 05:47:03;;;;;;;17.73;14.05;;;3.70;99.90;;;;;;5020889;28;20037;-73
2021/01/19 05:49:29;;;;;;;;;;;3.70;99.90;;;;;;5016051;28;20501;-73
2021/01/19 05:52:09;;;;;;;19.10;13.15;;;3.80;99.90;;;;;;5013725;28;19917;-73
2021/01/19 05:54:38;;;;;;;17.08;13.07;;;3.80;99.90;;;;;;5015739;28;20113;-73
2021/01/19 05:57:11;;;;;;;22.20;14.88;;;3.80;99.90;;;;;;5014533;28;20022;-74
2021/01/19 05:59:43;;;;;;;21.42;15.18;;;3.80;99.90;;;;;;5018961;28;20026;-73
2021/01/19 06:02:10;;;;;;;21.40;15.37;;;3.80;99.90;;;;;;5013733;28;20022;-74
2021/01/19 06:04:43;;;;;;;21.25;16.10;;;3.80;99.90;;;;;;5017140;28;20030;-74
2021/01/19 06:07:10;;;;;;;22.98;15.82;;;3.80;99.90;;;;;;5008685;28;20036;-73
2021/01/19 06:09:37;;;;;;;20.10;16.55;;;3.70;99.90;;;;;;5015570;28;20545;-74
2021/01/19 06:12:04;;;;;;;17.83;14.32;;;3.70;99.90;;;;;;5015969;28;20422;-73
2021/01/19 06:14:31;;;;;;;28.27;14.95;;;3.80;99.90;;;;;;5016253;28;20014;-74
2021/01/19 06:17:09;;;;;;;17.02;13.45;;;3.80;99.90;;;;;;5013525;28;20022;-70
2021/01/19 06:19:36;;;;;;;21.73;15.20;;;3.80;99.90;;;;;;5015984;28;20038;-72
2021/01/19 06:22:08;;;;;;;23.10;16.55;;;3.90;99.90;;;;;;5014442;28;20504;-72
2021/01/19 06:24:43;;;;;;;21.38;17.83;;;3.90;99.90;;;;;;5016845;28;20130;-74
2021/01/19 06:27:12;;;;;;;29.10;17.98;;;3.90;99.90;;;;;;4999453;28;20034;-73
2021/01/19 06:29:38;;;;;;;22.15;15.02;;;3.90;99.90;;;;;;5017443;28;20026;-72
2021/01/19 06:32:07;;;;;;;22.77;15.18;;;3.90;99.90;;;;;;5014637;28;20521;-73
2021/01/19 06:34:38;;;;;;;19.85;15.88;;;3.80;99.90;;;;;;5016140;28;20021;-73
2021/01/19 06:37:06;;;;;;;20.85;16.17;;;3.80;99.90;;;;;;5016640;28;20033;-73
2021/01/19 06:39:35;;;;;;;25.33;17.65;;;3.80;99.90;;;;;;5017096;28;20045;-73
2021/01/19 06:42:07;;;;;;;22.58;15.93;;;3.80;99.90;;;;;;5013057;28;20462;-72
2021/01/19 06:44:38;;;;;;;22.63;14.98;;;3.70;99.90;;;;;;5015442;28;20030;-72
2021/01/19 06:47:05;;;;;;;19.35;14.45;;;3.70;99.90;;;;;;5015967;28;20073;-72
2021/01/19 06:49:33;;;;;;;26.60;16.38;;;3.60;99.90;;;;;;5016222;28;20077;-72
2021/01/19 06:52:16;;;;;;;19.15;15.18;;;3.60;99.90;;;;;;5016129;28;20101;-73
2021/01/19 06:55:17;;;;;;;24.30;15.50;;;3.50;99.90;;;;;;5017717;28;20021;-72
2021/01/19 06:58:04;;;;;;;20.88;15.43;;;3.60;99.90;;;;;;5000623;28;20097;-72
2021/01/19 07:00:41;;;;;;;23.45;15.80;;;3.60;99.90;;;;;;5017396;28;20025;-72
2021/01/19 07:03:19;;;;;;;19.17;14.07;;;3.60;99.90;;;;;;5002370;28;20113;-72
2021/01/19 07:05:54;;;;;;;23.52;14.18;;;3.70;99.90;;;;;;5012325;28;20128;-73
2021/01/19 07:08:20;;;;;;;29.63;16.75;;;3.60;99.90;;;;;;5015983;28;20018;-72
2021/01/19 07:11:00;;;;;;;23.73;15.05;;;3.70;99.90;;;;;;5014976;28;20029;-72
2021/01/19 07:13:26;;;;;;;26.33;17.77;;;3.70;99.90;;;;;;5010853;28;20025;-73
2021/01/19 07:16:08;;;;;;;22.38;16.88;;;3.70;99.90;;;;;;5016280;28;20101;-73
2021/01/19 07:18:53;;;;;;;20.57;15.17;;;3.70;99.90;;;;;;5016322;28;20060;-72
2021/01/19 07:21:20;;;;;;;19.70;17.13;;;3.80;99.90;;;;;;5011874;28;20022;-72
2021/01/19 07:23:46;;;;;;;22.20;14.60;;;3.90;99.90;;;;;;5013565;28;20026;-73
2021/01/19 07:26:23;;;;;;;19.42;15.07;;;3.90;99.90;;;;;;5013184;28;20033;-72
2021/01/19 07:28:51;;;;;;;20.88;16.30;;;3.90;99.90;;;;;;5013667;28;20066;-72
2021/01/19 07:31:21;;;;;;;24.02;15.32;;;3.80;99.90;;;;;;5016041;28;20018;-72
2021/01/19 07:33:53;;;;;;;27.58;17.02;;;3.80;99.90;;;;;;5015294;28;20490;-72
2021/01/19 07:36:24;;;;;;;22.58;17.35;;;3.80;99.90;;;;;;5015349;28;20037;-72
2021/01/19 07:38:50;;;;;;;27.30;17.83;;;3.90;99.90;;;;;;5014911;28;20036;-72
2021/01/19 07:41:45;;;;;;;24.05;17.00;;;3.90;99.90;;;;;;5016171;28;20026;-73
2021/01/19 07:44:24;;;;;;;20.50;15.32;;;4.00;99.90;;;;;;5002512;28;20046;-72
2021/01/19 07:46:50;;;;;;;26.48;18.10;;;4.00;99.90;;;;;;5014592;28;20021;-72
2021/01/19 07:49:17;;;;;;;26.45;17.67;;;4.10;99.90;;;;;;5013850;28;20022;-73
2021/01/19 07:51:47;;;;;;;28.40;19.50;;;4.10;99.90;;;;;;5013230;28;20382;-73
2021/01/19 07:54:14;;;;;;;26.35;19.45;;;4.10;99.90;;;;;;5012833;28;20033;-74
2021/01/19 07:56:40;;;;;;;21.23;17.92;;;4.20;99.90;;;;;;5013575;28;20113;-74
2021/01/19 07:59:18;;;;;;;23.27;17.73;;;4.30;99.90;;;;;;5015550;28;20025;-75
2021/01/19 08:02:22;;;;;;;28.65;20.25;;;4.30;99.90;;;;;;5014900;28;20030;-72
2021/01/19 08:04:59;;;;;;;23.10;18.77;;;4.40;99.90;;;;;;4998239;28;20072;-73
2021/01/19 08:07:43;;;;;;;26.65;21.23;;;4.50;99.90;;;;;;5012627;28;20040;-72
2021/01/19 08:10:21;;;;;;;29.25;20.83;;;4.60;99.90;;;;;;5009162;28;20041;-74
2021/01/19 08:12:55;;;;;;;27.30;19.15;;;4.60;99.90;;;;;;5016512;28;20026;-73
2021/01/19 08:15:32;;;;;;;26.35;18.00;;;4.60;99.90;;;;;;5020982;28;20061;-74
2021/01/19 08:18:03;;;;;;;23.33;17.80;;;4.70;99.90;;;;;;5012423;28;20498;-74
2021/01/19 08:20:30;;;;;;;24.00;17.40;;;4.80;99.90;;;;;;5012506;28;20065;-74
2021/01/19 08:23:17;;;;;;;25.90;18.05;;;4.90;99.90;;;;;;5013079;28;20028;-74
2021/01/19 08:25:44;;;;;;;20.13;17.20;;;5.10;99.90;;;;;;5012280;28;20034;-74
2021/01/19 08:28:11;;;;;;;37.22;18.60;;;5.20;99.90;;;;;;5012953;28;20088;-74
2021/01/19 08:30:40;;;;;;;24.70;17.27;;;5.30;99.90;;;;;;5014546;28;20545;-74
2021/01/19 08:33:06;;;;;;;22.42;17.42;;;5.50;99.90;;;;;;5011531;28;20026;-74
2021/01/19 08:35:32;;;;;;;20.33;15.80;;;5.70;99.90;;;;;;5012281;28;20467;-74
2021/01/19 08:38:00;;;;;;;27.17;17.35;;;5.80;99.90;;;;;;5012803;28;20394;-74
2021/01/19 08:40:34;;;;;;;27.13;17.40;;;6.00;99.90;;;;;;5012869;28;20018;-74
2021/01/19 08:43:03;;;;;;;25.10;17.83;;;6.30;99.90;;;;;;5009338;28;20027;-74
2021/01/19 08:45:32;;;;;;;33.72;18.48;;;6.50;99.90;;;;;;5006694;28;20030;-74
2021/01/19 08:48:00;;;;;;;23.00;17.08;;;6.60;99.90;;;;;;5012121;28;20072;-73
2021/01/19 08:50:27;;;;;;;24.65;17.45;;;6.70;99.90;;;;;;5009606;28;20079;-74
2021/01/19 08:52:59;;;;;;;26.67;16.33;;;6.80;99.90;;;;;;5013461;28;20036;-73
2021/01/19 08:55:25;;;;;;;29.25;16.17;;;6.80;99.90;;;;;;5014854;28;20030;-74
2021/01/19 08:57:58;;;;;;;30.80;19.13;;;6.80;99.90;;;;;;5001590;28;20453;-77
2021/01/19 09:00:33;;;;;;;23.45;18.40;;;6.90;99.90;;;;;;5008044;28;20060;-74
2021/01/19 09:03:09;;;;;;;28.00;16.55;;;6.90;99.90;;;;;;5003097;28;20390;-73
2021/01/19 09:05:35;;;;;;;26.25;18.60;;;6.90;99.90;;;;;;5000209;28;20030;-74
2021/01/19 09:08:12;;;;;;;28.90;16.17;;;6.90;99.90;;;;;;4994582;28;20426;-74
2021/01/19 09:10:37;;;;;;;24.80;17.42;;;6.90;99.90;;;;;;5004056;28;20139;-74
2021/01/19 09:13:04;;;;;;;25.80;16.40;;;7.10;99.90;;;;;;4994839;28;20069;-74
2021/01/19 09:15:40;;;;;;;26.30;18.77;;;7.10;99.90;;;;;;5001533;28;20026;-74
2021/01/19 09:18:13;;;;;;;27.42;20.30;;;7.00;99.90;;;;;;5001826;28;20030;-73
2021/01/19 09:20:40;;;;;;;28.90;18.52;;;7.10;99.90;;;;;;5010957;28;20033;-74
2021/01/19 09:23:20;;;;;;;40.55;19.00;;;7.10;99.90;;;;;;5012666;28;20544;-75
2021/01/19 09:25:47;;;;;;;26.45;18.65;;;7.20;99.90;;;;;;5009759;28;20026;-74
2021/01/19 09:28:14;;;;;;;32.75;19.40;;;7.20;99.90;;;;;;5009226;28;20156;-74
2021/01/19 09:30:40;;;;;;;26.58;17.75;;;7.10;99.90;;;;;;5012589;28;20503;-75
2021/01/19 09:33:09;;;;;;;26.27;19.38;;;6.90;99.90;;;;;;5012972;28;20460;-76
2021/01/19 09:35:37;;;;;;;37.47;18.65;;;7.10;99.90;;;;;;5012550;28;20041;-73
2021/01/19 09:38:03;;;;;;;28.67;19.30;;;7.50;99.90;;;;;;5013555;28;20140;-74
2021/01/19 09:40:34;;;;;;;36.92;18.30;;;7.50;99.90;;;;;;5013012;28;20061;-74
2021/01/19 09:43:07;;;;;;;31.83;19.77;;;7.70;99.90;;;;;;5015370;28;20049;-74
2021/01/19 09:45:35;;;;;;;30.40;18.35;;;7.70;99.90;;;;;;5014061;28;20056;-74
2021/01/19 09:48:02;;;;;;;34.55;23.05;;;7.80;99.90;;;;;;5009359;28;20125;-74
2021/01/19 09:50:28;;;;;;;25.95;19.95;;;7.90;99.90;;;;;;5014372;28;20022;-74
2021/01/19 09:52:54;;;;;;;111.63;27.98;;;8.00;99.90;;;;;;5013722;28;20026;-74
2021/01/19 09:55:21;;;;;;;89.28;25.20;;;8.10;99.90;;;;;;5011752;28;20375;-75
2021/01/19 09:58:01;;;;;;;149.40;29.27;;;8.00;99.90;;;;;;5011311;28;20061;-74
2021/01/19 10:00:36;;;;;;;36.00;21.90;;;7.80;99.90;;;;;;5013044;28;20084;-74
2021/01/19 10:03:16;;;;;;;43.85;24.13;;;7.90;99.90;;;;;;5012848;28;21810;-74
2021/01/19 10:05:42;;;;;;;39.90;24.33;;;8.00;99.90;;;;;;5011343;28;20030;-74
2021/01/19 10:08:09;;;;;;;35.67;22.13;;;8.10;99.90;;;;;;5012786;28;20026;-75
2021/01/19 10:10:36;;;;;;;39.65;24.98;;;8.10;99.90;;;;;;5017170;28;20018;-74
2021/01/19 10:13:04;;;;;;;68.82;26.33;;;8.30;99.90;;;;;;5017464;28;20561;-74
2021/01/19 10:15:30;;;;;;;41.25;24.90;;;8.50;99.90;;;;;;5015303;28;20406;-75
2021/01/19 10:17:59;;;;;;;50.17;26.63;;;8.60;99.90;;;;;;5015907;28;20445;-75
2021/01/19 10:20:36;;;;;;;66.72;30.85;;;8.70;99.90;;;;;;5016253;28;20053;-75
2021/01/19 10:23:06;;;;;;;30.83;25.67;;;8.90;99.90;;;;;;5016710;28;20025;-74
2021/01/19 10:25:34;;;;;;;30.83;26.02;;;9.00;99.90;;;;;;5016284;28;20037;-74
2021/01/19 10:28:04;;;;;;;44.25;29.52;;;9.10;99.90;;;;;;5008338;28;20021;-75
2021/01/19 10:30:34;;;;;;;36.47;25.48;;;9.10;99.90;;;;;;5011405;28;20057;-74
2021/01/19 10:33:01;;;;;;;35.28;27.65;;;9.00;99.90;;;;;;5014673;28;20088;-74
2021/01/19 10:35:28;;;;;;;34.33;27.67;;;9.20;99.90;;;;;;5014763;28;20717;-74
2021/01/19 10:38:03;;;;;;;31.52;27.45;;;9.10;99.90;;;;;;5015892;28;20501;-74
2021/01/19 10:40:33;;;;;;;34.20;27.95;;;9.10;99.90;;;;;;5017079;28;20076;-74
2021/01/19 10:43:09;;;;;;;33.53;28.75;;;9.20;99.90;;;;;;5016076;28;20022;-74
2021/01/19 10:45:39;;;;;;;34.65;27.42;;;9.30;99.90;;;;;;5016151;28;20127;-74
2021/01/19 10:48:06;;;;;;;32.00;27.55;;;9.30;99.90;;;;;;5014871;28;20216;-74
2021/01/19 10:50:33;;;;;;;39.17;29.63;;;9.30;99.90;;;;;;5015595;28;20057;-74
2021/01/19 10:53:01;;;;;;;36.67;29.35;;;9.30;99.90;;;;;;5015749;28;20022;-73
2021/01/19 10:55:27;;;;;;;34.08;27.98;;;9.10;99.90;;;;;;5015903;28;20057;-74
2021/01/19 10:57:57;;;;;;;31.55;27.52;;;8.90;99.90;;;;;;5016595;28;20036;-74
2021/01/19 11:00:28;;;;;;;32.75;26.38;;;8.80;99.90;;;;;;5012816;28;20043;-75
2021/01/19 11:02:54;;;;;;;37.50;29.95;;;8.80;99.90;;;;;;5016755;28;20057;-73
2021/01/19 11:05:23;;;;;;;32.22;28.58;;;8.90;99.90;;;;;;5014580;28;20108;-74
2021/01/19 11:07:53;;;;;;;38.83;30.80;;;8.70;99.90;;;;;;5010948;28;20605;-75
2021/01/19 11:10:22;;;;;;;37.17;30.88;;;8.50;99.90;;;;;;5015150;28;20422;-74
2021/01/19 11:12:48;;;;;;;44.60;30.73;;;8.30;99.90;;;;;;5011653;28;20024;-74
2021/01/19 11:15:14;;;;;;;38.90;28.17;;;8.30;99.90;;;;;;5014256;28;20030;-74
2021/01/19 11:17:41;;;;;;;38.95;31.83;;;8.20;99.90;;;;;;5014989;28;20034;-74
2021/01/19 11:20:11;;;;;;;34.10;26.10;;;8.20;99.90;;;;;;5013183;28;20389;-74
2021/01/19 11:22:37;;;;;;;32.92;26.35;;;8.20;99.90;;;;;;5015632;28;20550;-74
2021/01/19 11:25:04;;;;;;;32.60;25.20;;;8.10;99.90;;;;;;5015246;28;20060;-74
2021/01/19 11:27:31;;;;;;;28.35;24.95;;;8.00;99.90;;;;;;5014850;28;20014;-74
2021/01/19 11:29:56;;;;;;;36.33;27.15;;;7.70;99.90;;;;;;5015923;28;20022;-74
2021/01/19 11:32:23;;;;;;;29.05;25.73;;;7.80;99.90;;;;;;5013198;28;20038;-74
2021/01/19 11:34:48;;;;;;;32.45;27.95;;;7.80;99.90;;;;;;5017790;28;20026;-74
2021/01/19 11:37:15;;;;;;;35.80;27.70;;;7.80;99.90;;;;;;5013188;28;20028;-74
2021/01/19 11:39:41;;;;;;;35.80;27.98;;;7.90;99.90;;;;;;5014616;28;20060;-74
2021/01/19 11:42:08;;;;;;;32.88;25.27;;;7.90;99.90;;;;;;5015280;28;20033;-75
2021/01/19 11:44:34;;;;;;;35.05;27.88;;;8.00;99.90;;;;;;5015630;28;20038;-74
2021/01/19 11:47:00;;;;;;;36.90;31.42;;;8.00;99.90;;;;;;5015746;28;20030;-74
2021/01/19 11:49:26;;;;;;;35.88;30.23;;;8.00;99.90;;;;;;5010284;28;20030;-74
2021/01/19 11:51:52;;;;;;;32.15;27.88;;;8.00;99.90;;;;;;5014809;28;20024;-74
2021/01/19 11:54:18;;;;;;;31.10;24.77;;;7.80;99.90;;;;;;5011709;28;20116;-74
2021/01/19 11:56:50;;;;;;;30.00;25.63;;;7.80;99.90;;;;;;5011844;28;20037;-75
2021/01/19 11:59:20;;;;;;;32.28;26.15;;;7.80;99.90;;;;;;5013717;28;20402;-74
2021/01/19 12:01:53;;;;;;;34.50;25.88;;;7.90;99.90;;;;;;5021184;28;20057;-73
2021/01/19 12:04:19;;;;;;;36.78;28.90;;;8.10;99.90;;;;;;5017431;28;20109;-73
2021/01/19 12:06:45;;;;;;;47.22;29.15;;;8.00;99.90;;;;;;5020266;28;20077;-74
2021/01/19 12:09:11;;;;;;;33.33;26.08;;;7.80;99.90;;;;;;5018902;28;20109;-73
2021/01/19 12:11:45;;;;;;;40.97;30.25;;;7.70;99.90;;;;;;5020904;28;20034;-73
2021/01/19 12:14:12;;;;;;;34.20;30.35;;;7.60;99.90;;;;;;4994804;28;20134;-73
2021/01/19 12:16:38;;;;;;;32.63;26.80;;;7.60;99.90;;;;;;5015326;28;20033;-73
2021/01/19 12:19:10;;;;;;;37.35;28.00;;;7.80;99.90;;;;;;5013755;28;20144;-74
2021/01/19 12:21:46;;;;;;;30.90;27.20;;;7.90;99.90;;;;;;5015055;28;20109;-74
2021/01/19 12:24:11;;;;;;;38.10;31.95;;;7.90;99.90;;;;;;5010222;28;20123;-73
2021/01/19 12:26:37;;;;;;;38.15;29.23;;;7.90;99.90;;;;;;5014536;28;20025;-73
2021/01/19 12:29:03;;;;;;;34.33;27.23;;;7.80;99.90;;;;;;5012342;28;20030;-74
2021/01/19 12:31:29;;;;;;;31.02;27.42;;;7.80;99.90;;;;;;5011261;28;20513;-74
2021/01/19 12:33:55;;;;;;;37.78;29.35;;;7.70;99.90;;;;;;5010546;28;20049;-74
2021/01/19 12:36:21;;;;;;;33.35;29.20;;;7.70;99.90;;;;;;5013875;28;20049;-74
2021/01/19 12:38:48;;;;;;;34.70;28.63;;;7.70;99.90;;;;;;5011267;28;20034;-74
2021/01/19 12:41:17;;;;;;;33.67;28.00;;;7.70;99.90;;;;;;5012151;28;20026;-75
2021/01/19 12:43:43;;;;;;;33.65;28.50;;;7.70;99.90;;;;;;5014275;28;20057;-74
2021/01/19 12:46:14;;;;;;;35.83;29.80;;;7.80;99.90;;;;;;5014312;28;20025;-74
2021/01/19 12:48:40;;;;;;;40.00;28.50;;;7.70;99.90;;;;;;5014911;28;20033;-74
2021/01/19 12:51:12;;;;;;;39.17;30.85;;;7.60;99.90;;;;;;5013252;28;20128;-75
2021/01/19 12:53:38;;;;;;;;;;;7.60;99.90;;;;;;5015264;28;20026;-74
2021/01/19 12:56:08;;;;;;;30.88;26.00;;;7.60;99.90;;;;;;5011546;28;19905;-74
2021/01/19 12:58:34;;;;;;;35.53;26.13;;;7.60;99.90;;;;;;5013816;28;20030;-75
2021/01/19 13:01:01;;;;;;;30.70;25.08;;;7.70;99.90;;;;;;5012417;28;20041;-74